sensor_id;sensor_type;location;lat;lon;timestamp;P1;durP1;ratioP1;P2;durP2;ratioP2
64826;SDS011;51265;53.972;12.286;2024-02-14T00:00:12;5.53;;;2.33;;
64826;SDS011;51265;53.972;12.286;2024-02-14T00:02:45;3.20;;;2.30;;
64826;SDS011;51265;53.972;12.286;2024-02-14T00:05:15;3.47;;;2.10;;
64826;SDS011;51265;53.972;12.286;2024-02-14T00:07:41;5.05;;;2.22;;
64826;SDS011;51265;53.972;12.286;2024-02-14T00:10:07;4.22;;;2.30;;
64826;SDS011;51265;53.972;12.286;2024-02-14T00:12:34;3.60;;;2.35;;
64826;SDS011;51265;53.972;12.286;2024-02-14T00:15:02;3.08;;;2.25;;
64826;SDS011;51265;53.972;12.286;2024-02-14T00:17:29;4.05;;;2.00;;
64826;SDS011;51265;53.972;12.286;2024-02-14T00:19:56;4.50;;;2.20;;
64826;SDS011;51265;53.972;12.286;2024-02-14T00:22:23;4.20;;;2.13;;
64826;SDS011;51265;53.972;12.286;2024-02-14T00:24:49;5.65;;;2.20;;
64826;SDS011;51265;53.972;12.286;2024-02-14T00:27:16;5.43;;;2.53;;
64826;SDS011;51265;53.972;12.286;2024-02-14T00:29:43;3.05;;;2.30;;
64826;SDS011;51265;53.972;12.286;2024-02-14T00:32:14;4.97;;;2.38;;
64826;SDS011;51265;53.972;12.286;2024-02-14T00:34:40;2.88;;;2.05;;
64826;SDS011;51265;53.972;12.286;2024-02-14T00:37:06;2.28;;;1.77;;
64826;SDS011;51265;53.972;12.286;2024-02-14T00:39:33;4.53;;;2.03;;
64826;SDS011;51265;53.972;12.286;2024-02-14T00:41:59;3.53;;;1.92;;
64826;SDS011;51265;53.972;12.286;2024-02-14T00:44:25;4.35;;;2.25;;
64826;SDS011;51265;53.972;12.286;2024-02-14T00:46:57;3.22;;;2.08;;
64826;SDS011;51265;53.972;12.286;2024-02-14T00:49:28;2.88;;;1.90;;
64826;SDS011;51265;53.972;12.286;2024-02-14T00:51:54;5.40;;;2.20;;
64826;SDS011;51265;53.972;12.286;2024-02-14T00:54:21;6.22;;;2.30;;
64826;SDS011;51265;53.972;12.286;2024-02-14T00:56:47;5.05;;;2.38;;
64826;SDS011;51265;53.972;12.286;2024-02-14T00:59:13;3.55;;;2.15;;
64826;SDS011;51265;53.972;12.286;2024-02-14T01:01:39;3.92;;;2.13;;
64826;SDS011;51265;53.972;12.286;2024-02-14T01:04:05;5.20;;;2.17;;
64826;SDS011;51265;53.972;12.286;2024-02-14T01:06:33;4.13;;;2.08;;
64826;SDS011;51265;53.972;12.286;2024-02-14T01:08:59;3.55;;;2.03;;
64826;SDS011;51265;53.972;12.286;2024-02-14T01:11:25;4.95;;;2.53;;
64826;SDS011;51265;53.972;12.286;2024-02-14T01:13:51;6.68;;;2.60;;
64826;SDS011;51265;53.972;12.286;2024-02-14T01:16:17;8.52;;;2.85;;
64826;SDS011;51265;53.972;12.286;2024-02-14T01:18:43;4.50;;;2.53;;
64826;SDS011;51265;53.972;12.286;2024-02-14T01:21:10;4.63;;;2.58;;
64826;SDS011;51265;53.972;12.286;2024-02-14T01:23:36;4.15;;;2.58;;
64826;SDS011;51265;53.972;12.286;2024-02-14T01:26:02;5.70;;;2.60;;
64826;SDS011;51265;53.972;12.286;2024-02-14T01:28:28;3.83;;;2.63;;
64826;SDS011;51265;53.972;12.286;2024-02-14T01:30:54;6.07;;;2.60;;
64826;SDS011;51265;53.972;12.286;2024-02-14T01:33:23;3.40;;;2.30;;
64826;SDS011;51265;53.972;12.286;2024-02-14T01:35:49;6.00;;;2.70;;
64826;SDS011;51265;53.972;12.286;2024-02-14T01:38:15;4.65;;;2.45;;
64826;SDS011;51265;53.972;12.286;2024-02-14T01:40:44;4.50;;;2.40;;
64826;SDS011;51265;53.972;12.286;2024-02-14T01:43:11;5.40;;;2.30;;
64826;SDS011;51265;53.972;12.286;2024-02-14T01:45:37;5.57;;;2.17;;
64826;SDS011;51265;53.972;12.286;2024-02-14T01:48:04;4.32;;;2.65;;
64826;SDS011;51265;53.972;12.286;2024-02-14T01:50:32;3.35;;;2.05;;
64826;SDS011;51265;53.972;12.286;2024-02-14T01:53:00;4.30;;;2.50;;
64826;SDS011;51265;53.972;12.286;2024-02-14T01:55:27;2.45;;;1.63;;
64826;SDS011;51265;53.972;12.286;2024-02-14T01:57:54;3.15;;;1.77;;
64826;SDS011;51265;53.972;12.286;2024-02-14T02:00:21;2.33;;;1.60;;
64826;SDS011;51265;53.972;12.286;2024-02-14T02:02:47;3.13;;;1.80;;
64826;SDS011;51265;53.972;12.286;2024-02-14T02:05:18;2.35;;;1.83;;
64826;SDS011;51265;53.972;12.286;2024-02-14T02:07:45;4.28;;;1.90;;
64826;SDS011;51265;53.972;12.286;2024-02-14T02:10:14;3.20;;;1.98;;
64826;SDS011;51265;53.972;12.286;2024-02-14T02:12:41;6.65;;;2.15;;
64826;SDS011;51265;53.972;12.286;2024-02-14T02:15:07;3.25;;;2.28;;
64826;SDS011;51265;53.972;12.286;2024-02-14T02:17:40;2.43;;;2.07;;
64826;SDS011;51265;53.972;12.286;2024-02-14T02:20:06;3.83;;;2.28;;
64826;SDS011;51265;53.972;12.286;2024-02-14T02:22:34;3.83;;;2.33;;
64826;SDS011;51265;53.972;12.286;2024-02-14T02:25:03;3.97;;;2.20;;
64826;SDS011;51265;53.972;12.286;2024-02-14T02:27:33;3.95;;;2.78;;
64826;SDS011;51265;53.972;12.286;2024-02-14T02:30:06;3.35;;;2.00;;
64826;SDS011;51265;53.972;12.286;2024-02-14T02:32:34;3.78;;;2.00;;
64826;SDS011;51265;53.972;12.286;2024-02-14T02:35:00;3.35;;;1.70;;
64826;SDS011;51265;53.972;12.286;2024-02-14T02:37:27;3.97;;;1.92;;
64826;SDS011;51265;53.972;12.286;2024-02-14T02:39:56;4.55;;;2.30;;
64826;SDS011;51265;53.972;12.286;2024-02-14T02:42:22;3.65;;;2.03;;
64826;SDS011;51265;53.972;12.286;2024-02-14T02:44:51;3.17;;;1.90;;
64826;SDS011;51265;53.972;12.286;2024-02-14T02:47:17;2.38;;;1.38;;
64826;SDS011;51265;53.972;12.286;2024-02-14T02:49:43;6.20;;;1.80;;
64826;SDS011;51265;53.972;12.286;2024-02-14T02:52:10;2.25;;;1.65;;
64826;SDS011;51265;53.972;12.286;2024-02-14T02:54:36;2.90;;;1.65;;
64826;SDS011;51265;53.972;12.286;2024-02-14T02:57:09;2.85;;;1.67;;
64826;SDS011;51265;53.972;12.286;2024-02-14T02:59:36;1.88;;;1.42;;
64826;SDS011;51265;53.972;12.286;2024-02-14T03:02:03;3.20;;;1.73;;
64826;SDS011;51265;53.972;12.286;2024-02-14T03:04:29;3.17;;;1.63;;
64826;SDS011;51265;53.972;12.286;2024-02-14T03:06:57;3.17;;;1.80;;
64826;SDS011;51265;53.972;12.286;2024-02-14T03:09:24;2.60;;;1.50;;
64826;SDS011;51265;53.972;12.286;2024-02-14T03:11:52;2.55;;;1.45;;
64826;SDS011;51265;53.972;12.286;2024-02-14T03:14:18;1.80;;;1.52;;
64826;SDS011;51265;53.972;12.286;2024-02-14T03:16:44;1.98;;;1.52;;
64826;SDS011;51265;53.972;12.286;2024-02-14T03:19:10;3.97;;;1.80;;
64826;SDS011;51265;53.972;12.286;2024-02-14T03:21:37;1.58;;;1.33;;
64826;SDS011;51265;53.972;12.286;2024-02-14T03:24:04;2.25;;;1.40;;
64826;SDS011;51265;53.972;12.286;2024-02-14T03:26:35;2.45;;;1.52;;
64826;SDS011;51265;53.972;12.286;2024-02-14T03:29:03;2.30;;;1.35;;
64826;SDS011;51265;53.972;12.286;2024-02-14T03:31:32;1.77;;;1.40;;
64826;SDS011;51265;53.972;12.286;2024-02-14T03:33:58;4.57;;;1.58;;
64826;SDS011;51265;53.972;12.286;2024-02-14T03:36:24;2.58;;;1.40;;
64826;SDS011;51265;53.972;12.286;2024-02-14T03:38:54;2.13;;;1.40;;
64826;SDS011;51265;53.972;12.286;2024-02-14T03:41:20;2.08;;;1.30;;
64826;SDS011;51265;53.972;12.286;2024-02-14T03:43:46;2.95;;;1.30;;
64826;SDS011;51265;53.972;12.286;2024-02-14T03:46:12;4.05;;;1.70;;
64826;SDS011;51265;53.972;12.286;2024-02-14T03:48:39;2.67;;;1.40;;
64826;SDS011;51265;53.972;12.286;2024-02-14T03:51:07;2.28;;;1.50;;
64826;SDS011;51265;53.972;12.286;2024-02-14T03:53:33;2.08;;;1.10;;
64826;SDS011;51265;53.972;12.286;2024-02-14T03:55:59;1.52;;;1.27;;
64826;SDS011;51265;53.972;12.286;2024-02-14T03:58:25;2.00;;;1.40;;
64826;SDS011;51265;53.972;12.286;2024-02-14T04:00:51;2.30;;;1.38;;
64826;SDS011;51265;53.972;12.286;2024-02-14T04:03:18;3.25;;;1.30;;
64826;SDS011;51265;53.972;12.286;2024-02-14T04:05:44;1.67;;;1.10;;
64826;SDS011;51265;53.972;12.286;2024-02-14T04:08:10;1.48;;;1.23;;
64826;SDS011;51265;53.972;12.286;2024-02-14T04:10:37;1.90;;;1.30;;
64826;SDS011;51265;53.972;12.286;2024-02-14T04:13:04;1.67;;;1.52;;
64826;SDS011;51265;53.972;12.286;2024-02-14T04:15:31;2.35;;;1.20;;
64826;SDS011;51265;53.972;12.286;2024-02-14T04:17:57;1.30;;;1.20;;
64826;SDS011;51265;53.972;12.286;2024-02-14T04:20:25;1.48;;;1.17;;
64826;SDS011;51265;53.972;12.286;2024-02-14T04:22:51;1.50;;;1.23;;
64826;SDS011;51265;53.972;12.286;2024-02-14T04:25:17;1.80;;;1.40;;
64826;SDS011;51265;53.972;12.286;2024-02-14T04:27:44;2.28;;;1.25;;
64826;SDS011;51265;53.972;12.286;2024-02-14T04:30:10;1.98;;;1.20;;
64826;SDS011;51265;53.972;12.286;2024-02-14T04:32:37;2.38;;;1.10;;
64826;SDS011;51265;53.972;12.286;2024-02-14T04:35:03;1.00;;;0.90;;
64826;SDS011;51265;53.972;12.286;2024-02-14T04:37:29;1.70;;;1.20;;
64826;SDS011;51265;53.972;12.286;2024-02-14T04:39:55;1.75;;;1.25;;
64826;SDS011;51265;53.972;12.286;2024-02-14T04:42:21;1.42;;;1.10;;
64826;SDS011;51265;53.972;12.286;2024-02-14T04:44:48;2.20;;;1.00;;
64826;SDS011;51265;53.972;12.286;2024-02-14T04:47:14;1.52;;;1.10;;
64826;SDS011;51265;53.972;12.286;2024-02-14T04:49:40;4.40;;;1.30;;
64826;SDS011;51265;53.972;12.286;2024-02-14T04:52:07;2.08;;;1.10;;
64826;SDS011;51265;53.972;12.286;2024-02-14T04:54:33;2.05;;;1.10;;
64826;SDS011;51265;53.972;12.286;2024-02-14T04:56:59;1.90;;;1.00;;
64826;SDS011;51265;53.972;12.286;2024-02-14T04:59:26;2.58;;;1.40;;
64826;SDS011;51265;53.972;12.286;2024-02-14T05:01:52;1.20;;;1.10;;
64826;SDS011;51265;53.972;12.286;2024-02-14T05:04:19;2.05;;;1.40;;
64826;SDS011;51265;53.972;12.286;2024-02-14T05:06:46;1.58;;;1.00;;
64826;SDS011;51265;53.972;12.286;2024-02-14T05:09:12;1.60;;;1.10;;
64826;SDS011;51265;53.972;12.286;2024-02-14T05:11:40;1.30;;;0.88;;
64826;SDS011;51265;53.972;12.286;2024-02-14T05:14:07;2.80;;;1.30;;
64826;SDS011;51265;53.972;12.286;2024-02-14T05:16:33;1.35;;;0.90;;
64826;SDS011;51265;53.972;12.286;2024-02-14T05:18:59;2.97;;;1.15;;
64826;SDS011;51265;53.972;12.286;2024-02-14T05:21:26;1.48;;;1.08;;
64826;SDS011;51265;53.972;12.286;2024-02-14T05:23:53;2.22;;;1.20;;
64826;SDS011;51265;53.972;12.286;2024-02-14T05:26:19;2.65;;;1.08;;
64826;SDS011;51265;53.972;12.286;2024-02-14T05:28:45;2.13;;;1.10;;
64826;SDS011;51265;53.972;12.286;2024-02-14T05:31:12;1.30;;;0.93;;
64826;SDS011;51265;53.972;12.286;2024-02-14T05:33:38;2.17;;;1.20;;
64826;SDS011;51265;53.972;12.286;2024-02-14T05:36:04;1.48;;;1.17;;
64826;SDS011;51265;53.972;12.286;2024-02-14T05:38:31;3.08;;;1.83;;
64826;SDS011;51265;53.972;12.286;2024-02-14T05:40:59;2.20;;;1.20;;
64826;SDS011;51265;53.972;12.286;2024-02-14T05:43:26;2.30;;;1.20;;
64826;SDS011;51265;53.972;12.286;2024-02-14T05:45:52;2.95;;;1.40;;
64826;SDS011;51265;53.972;12.286;2024-02-14T05:48:19;2.75;;;1.30;;
64826;SDS011;51265;53.972;12.286;2024-02-14T05:50:46;2.45;;;1.23;;
64826;SDS011;51265;53.972;12.286;2024-02-14T05:53:13;3.45;;;1.58;;
64826;SDS011;51265;53.972;12.286;2024-02-14T05:55:39;3.28;;;1.42;;
64826;SDS011;51265;53.972;12.286;2024-02-14T05:58:05;1.85;;;1.45;;
64826;SDS011;51265;53.972;12.286;2024-02-14T06:00:31;2.22;;;1.40;;
64826;SDS011;51265;53.972;12.286;2024-02-14T06:02:57;3.42;;;1.63;;
64826;SDS011;51265;53.972;12.286;2024-02-14T06:05:23;2.50;;;1.70;;
64826;SDS011;51265;53.972;12.286;2024-02-14T06:07:49;2.92;;;1.45;;
64826;SDS011;51265;53.972;12.286;2024-02-14T06:10:16;3.60;;;1.60;;
64826;SDS011;51265;53.972;12.286;2024-02-14T06:12:43;3.97;;;1.80;;
64826;SDS011;51265;53.972;12.286;2024-02-14T06:15:10;2.80;;;1.67;;
64826;SDS011;51265;53.972;12.286;2024-02-14T06:17:36;2.10;;;1.50;;
64826;SDS011;51265;53.972;12.286;2024-02-14T06:20:02;3.20;;;1.55;;
64826;SDS011;51265;53.972;12.286;2024-02-14T06:22:33;4.65;;;1.80;;
64826;SDS011;51265;53.972;12.286;2024-02-14T06:24:59;2.70;;;1.73;;
64826;SDS011;51265;53.972;12.286;2024-02-14T06:27:26;3.97;;;2.10;;
64826;SDS011;51265;53.972;12.286;2024-02-14T06:29:53;3.20;;;2.22;;
64826;SDS011;51265;53.972;12.286;2024-02-14T06:32:19;3.42;;;1.88;;
64826;SDS011;51265;53.972;12.286;2024-02-14T06:34:45;4.45;;;1.98;;
64826;SDS011;51265;53.972;12.286;2024-02-14T06:37:11;3.72;;;2.17;;
64826;SDS011;51265;53.972;12.286;2024-02-14T06:39:37;3.92;;;2.22;;
64826;SDS011;51265;53.972;12.286;2024-02-14T06:42:04;3.72;;;2.92;;
64826;SDS011;51265;53.972;12.286;2024-02-14T06:44:30;5.43;;;2.63;;
64826;SDS011;51265;53.972;12.286;2024-02-14T06:46:56;4.50;;;2.72;;
64826;SDS011;51265;53.972;12.286;2024-02-14T06:49:22;4.40;;;2.47;;
64826;SDS011;51265;53.972;12.286;2024-02-14T06:51:48;3.35;;;2.50;;
64826;SDS011;51265;53.972;12.286;2024-02-14T06:54:15;3.47;;;2.72;;
64826;SDS011;51265;53.972;12.286;2024-02-14T06:56:43;4.00;;;3.00;;
64826;SDS011;51265;53.972;12.286;2024-02-14T06:59:09;3.60;;;2.55;;
64826;SDS011;51265;53.972;12.286;2024-02-14T07:01:35;5.43;;;3.00;;
64826;SDS011;51265;53.972;12.286;2024-02-14T07:04:01;4.80;;;3.15;;
64826;SDS011;51265;53.972;12.286;2024-02-14T07:06:27;5.38;;;3.20;;
64826;SDS011;51265;53.972;12.286;2024-02-14T07:08:53;3.25;;;2.88;;
64826;SDS011;51265;53.972;12.286;2024-02-14T07:11:20;3.70;;;3.13;;
64826;SDS011;51265;53.972;12.286;2024-02-14T07:13:46;5.68;;;3.10;;
64826;SDS011;51265;53.972;12.286;2024-02-14T07:16:12;4.65;;;3.38;;
64826;SDS011;51265;53.972;12.286;2024-02-14T07:18:38;4.43;;;3.13;;
64826;SDS011;51265;53.972;12.286;2024-02-14T07:21:04;4.30;;;3.25;;
64826;SDS011;51265;53.972;12.286;2024-02-14T07:23:31;2.78;;;2.30;;
64826;SDS011;51265;53.972;12.286;2024-02-14T07:25:59;3.13;;;2.70;;
64826;SDS011;51265;53.972;12.286;2024-02-14T07:28:27;4.07;;;2.90;;
64826;SDS011;51265;53.972;12.286;2024-02-14T07:30:53;3.35;;;2.88;;
64826;SDS011;51265;53.972;12.286;2024-02-14T07:33:19;3.60;;;2.53;;
64826;SDS011;51265;53.972;12.286;2024-02-14T07:35:46;3.63;;;2.63;;
64826;SDS011;51265;53.972;12.286;2024-02-14T07:38:13;4.90;;;2.60;;
64826;SDS011;51265;53.972;12.286;2024-02-14T07:40:39;3.60;;;2.80;;
64826;SDS011;51265;53.972;12.286;2024-02-14T07:43:05;3.08;;;2.40;;
64826;SDS011;51265;53.972;12.286;2024-02-14T07:45:33;3.60;;;2.67;;
64826;SDS011;51265;53.972;12.286;2024-02-14T07:47:59;4.30;;;2.83;;
64826;SDS011;51265;53.972;12.286;2024-02-14T07:50:25;5.88;;;3.00;;
64826;SDS011;51265;53.972;12.286;2024-02-14T07:52:53;3.88;;;3.00;;
64826;SDS011;51265;53.972;12.286;2024-02-14T07:55:19;3.53;;;2.85;;
64826;SDS011;51265;53.972;12.286;2024-02-14T07:57:46;6.63;;;3.40;;
64826;SDS011;51265;53.972;12.286;2024-02-14T08:00:12;3.13;;;2.63;;
64826;SDS011;51265;53.972;12.286;2024-02-14T08:02:44;3.73;;;2.93;;
64826;SDS011;51265;53.972;12.286;2024-02-14T08:05:11;4.25;;;2.83;;
64826;SDS011;51265;53.972;12.286;2024-02-14T08:07:37;5.13;;;2.45;;
64826;SDS011;51265;53.972;12.286;2024-02-14T08:10:03;5.35;;;2.70;;
64826;SDS011;51265;53.972;12.286;2024-02-14T08:12:30;3.45;;;2.75;;
64826;SDS011;51265;53.972;12.286;2024-02-14T08:14:57;3.03;;;2.60;;
64826;SDS011;51265;53.972;12.286;2024-02-14T08:17:23;4.63;;;2.90;;
64826;SDS011;51265;53.972;12.286;2024-02-14T08:19:49;3.47;;;2.60;;
64826;SDS011;51265;53.972;12.286;2024-02-14T08:22:15;3.75;;;2.55;;
64826;SDS011;51265;53.972;12.286;2024-02-14T08:24:42;2.80;;;2.22;;
64826;SDS011;51265;53.972;12.286;2024-02-14T08:27:08;5.10;;;2.72;;
64826;SDS011;51265;53.972;12.286;2024-02-14T08:29:34;3.90;;;2.88;;
64826;SDS011;51265;53.972;12.286;2024-02-14T08:32:00;4.70;;;2.70;;
64826;SDS011;51265;53.972;12.286;2024-02-14T08:34:27;3.33;;;2.47;;
64826;SDS011;51265;53.972;12.286;2024-02-14T08:36:56;4.18;;;2.58;;
64826;SDS011;51265;53.972;12.286;2024-02-14T08:39:22;3.35;;;2.80;;
64826;SDS011;51265;53.972;12.286;2024-02-14T08:41:49;4.60;;;2.55;;
64826;SDS011;51265;53.972;12.286;2024-02-14T08:44:16;3.15;;;2.78;;
64826;SDS011;51265;53.972;12.286;2024-02-14T08:46:44;3.95;;;2.88;;
64826;SDS011;51265;53.972;12.286;2024-02-14T08:49:14;4.00;;;2.42;;
64826;SDS011;51265;53.972;12.286;2024-02-14T08:51:40;5.07;;;2.85;;
64826;SDS011;51265;53.972;12.286;2024-02-14T08:54:08;3.15;;;2.42;;
64826;SDS011;51265;53.972;12.286;2024-02-14T08:56:35;3.72;;;2.40;;
64826;SDS011;51265;53.972;12.286;2024-02-14T08:59:02;4.78;;;3.22;;
64826;SDS011;51265;53.972;12.286;2024-02-14T09:01:29;4.00;;;2.90;;
64826;SDS011;51265;53.972;12.286;2024-02-14T09:03:56;3.05;;;2.40;;
64826;SDS011;51265;53.972;12.286;2024-02-14T09:06:23;3.30;;;2.60;;
64826;SDS011;51265;53.972;12.286;2024-02-14T09:08:49;3.33;;;2.60;;
64826;SDS011;51265;53.972;12.286;2024-02-14T09:11:21;3.78;;;2.80;;
64826;SDS011;51265;53.972;12.286;2024-02-14T09:13:48;4.75;;;2.83;;
64826;SDS011;51265;53.972;12.286;2024-02-14T09:16:16;3.65;;;2.60;;
64826;SDS011;51265;53.972;12.286;2024-02-14T09:18:44;3.17;;;2.65;;
64826;SDS011;51265;53.972;12.286;2024-02-14T09:21:11;3.10;;;2.40;;
64826;SDS011;51265;53.972;12.286;2024-02-14T09:23:37;3.65;;;2.50;;
64826;SDS011;51265;53.972;12.286;2024-02-14T09:26:06;5.13;;;2.90;;
64826;SDS011;51265;53.972;12.286;2024-02-14T09:28:32;4.03;;;3.03;;
64826;SDS011;51265;53.972;12.286;2024-02-14T09:31:00;6.53;;;3.17;;
64826;SDS011;51265;53.972;12.286;2024-02-14T09:33:27;4.63;;;2.83;;
64826;SDS011;51265;53.972;12.286;2024-02-14T09:35:53;4.13;;;3.13;;
64826;SDS011;51265;53.972;12.286;2024-02-14T09:38:19;4.88;;;2.88;;
64826;SDS011;51265;53.972;12.286;2024-02-14T09:40:45;5.35;;;3.00;;
64826;SDS011;51265;53.972;12.286;2024-02-14T09:46:08;4.13;;;2.88;;
64826;SDS011;51265;53.972;12.286;2024-02-14T09:48:35;4.55;;;2.83;;
64826;SDS011;51265;53.972;12.286;2024-02-14T09:51:03;3.35;;;2.63;;
64826;SDS011;51265;53.972;12.286;2024-02-14T09:53:30;3.35;;;2.63;;
64826;SDS011;51265;53.972;12.286;2024-02-14T09:55:58;7.93;;;3.40;;
64826;SDS011;51265;53.972;12.286;2024-02-14T09:58:25;4.07;;;2.72;;
64826;SDS011;51265;53.972;12.286;2024-02-14T10:00:53;3.55;;;2.97;;
64826;SDS011;51265;53.972;12.286;2024-02-14T10:03:19;3.38;;;2.70;;
64826;SDS011;51265;53.972;12.286;2024-02-14T10:05:45;4.18;;;3.00;;
64826;SDS011;51265;53.972;12.286;2024-02-14T10:08:11;5.10;;;3.10;;
64826;SDS011;51265;53.972;12.286;2024-02-14T10:10:38;5.55;;;3.60;;
64826;SDS011;51265;53.972;12.286;2024-02-14T10:13:04;3.08;;;2.50;;
64826;SDS011;51265;53.972;12.286;2024-02-14T10:15:32;6.18;;;3.10;;
64826;SDS011;51265;53.972;12.286;2024-02-14T10:17:58;3.58;;;2.95;;
64826;SDS011;51265;53.972;12.286;2024-02-14T10:20:25;4.35;;;2.92;;
64826;SDS011;51265;53.972;12.286;2024-02-14T10:22:59;3.90;;;3.03;;
64826;SDS011;51265;53.972;12.286;2024-02-14T10:25:26;4.85;;;3.00;;
64826;SDS011;51265;53.972;12.286;2024-02-14T10:27:52;6.63;;;3.08;;
64826;SDS011;51265;53.972;12.286;2024-02-14T10:30:18;3.70;;;2.60;;
64826;SDS011;51265;53.972;12.286;2024-02-14T10:32:45;3.58;;;2.38;;
64826;SDS011;51265;53.972;12.286;2024-02-14T10:35:13;4.40;;;3.22;;
64826;SDS011;51265;53.972;12.286;2024-02-14T10:37:40;5.07;;;3.00;;
64826;SDS011;51265;53.972;12.286;2024-02-14T10:40:07;4.00;;;2.88;;
64826;SDS011;51265;53.972;12.286;2024-02-14T10:42:37;4.60;;;2.60;;
64826;SDS011;51265;53.972;12.286;2024-02-14T10:45:03;3.72;;;2.70;;
64826;SDS011;51265;53.972;12.286;2024-02-14T10:47:30;3.03;;;2.60;;
64826;SDS011;51265;53.972;12.286;2024-02-14T10:50:06;3.90;;;2.95;;
64826;SDS011;51265;53.972;12.286;2024-02-14T10:52:36;5.18;;;2.70;;
64826;SDS011;51265;53.972;12.286;2024-02-14T10:55:03;3.63;;;2.60;;
64826;SDS011;51265;53.972;12.286;2024-02-14T10:57:31;5.13;;;2.80;;
64826;SDS011;51265;53.972;12.286;2024-02-14T10:59:58;4.25;;;2.70;;
64826;SDS011;51265;53.972;12.286;2024-02-14T11:02:27;3.30;;;2.50;;
64826;SDS011;51265;53.972;12.286;2024-02-14T11:04:56;2.65;;;2.45;;
64826;SDS011;51265;53.972;12.286;2024-02-14T11:07:22;5.13;;;2.63;;
64826;SDS011;51265;53.972;12.286;2024-02-14T11:10:01;2.95;;;2.60;;
64826;SDS011;51265;53.972;12.286;2024-02-14T11:12:34;3.22;;;2.58;;
64826;SDS011;51265;53.972;12.286;2024-02-14T11:15:19;5.07;;;2.75;;
64826;SDS011;51265;53.972;12.286;2024-02-14T11:17:47;4.35;;;2.45;;
64826;SDS011;51265;53.972;12.286;2024-02-14T11:20:21;2.25;;;1.92;;
64826;SDS011;51265;53.972;12.286;2024-02-14T11:22:57;2.67;;;2.17;;
64826;SDS011;51265;53.972;12.286;2024-02-14T11:25:29;3.27;;;2.17;;
64826;SDS011;51265;53.972;12.286;2024-02-14T11:27:59;2.25;;;1.80;;
64826;SDS011;51265;53.972;12.286;2024-02-14T11:30:28;3.30;;;2.30;;
64826;SDS011;51265;53.972;12.286;2024-02-14T11:33:12;2.53;;;2.03;;
64826;SDS011;51265;53.972;12.286;2024-02-14T11:35:41;2.30;;;2.00;;
64826;SDS011;51265;53.972;12.286;2024-02-14T11:38:08;2.55;;;2.05;;
64826;SDS011;51265;53.972;12.286;2024-02-14T11:40:35;2.33;;;2.08;;
64826;SDS011;51265;53.972;12.286;2024-02-14T11:43:10;2.75;;;2.15;;
64826;SDS011;51265;53.972;12.286;2024-02-14T11:45:43;2.72;;;2.50;;
64826;SDS011;51265;53.972;12.286;2024-02-14T11:48:11;2.85;;;2.30;;
64826;SDS011;51265;53.972;12.286;2024-02-14T11:50:41;2.80;;;2.10;;
64826;SDS011;51265;53.972;12.286;2024-02-14T11:53:12;2.53;;;2.20;;
64826;SDS011;51265;53.972;12.286;2024-02-14T11:55:40;2.40;;;2.20;;
64826;SDS011;51265;53.972;12.286;2024-02-14T11:58:10;2.70;;;2.28;;
64826;SDS011;51265;53.972;12.286;2024-02-14T12:00:37;3.10;;;2.20;;
64826;SDS011;51265;53.972;12.286;2024-02-14T12:03:26;2.60;;;2.40;;
64826;SDS011;51265;53.972;12.286;2024-02-14T12:05:53;3.58;;;2.42;;
64826;SDS011;51265;53.972;12.286;2024-02-14T12:08:20;4.30;;;2.47;;
64826;SDS011;51265;53.972;12.286;2024-02-14T12:10:47;2.88;;;2.40;;
64826;SDS011;51265;53.972;12.286;2024-02-14T12:13:15;2.67;;;2.38;;
64826;SDS011;51265;53.972;12.286;2024-02-14T12:15:47;4.70;;;2.22;;
64826;SDS011;51265;53.972;12.286;2024-02-14T12:18:15;3.50;;;2.90;;
64826;SDS011;51265;53.972;12.286;2024-02-14T12:20:42;2.72;;;2.30;;
64826;SDS011;51265;53.972;12.286;2024-02-14T12:23:16;3.08;;;2.55;;
64826;SDS011;51265;53.972;12.286;2024-02-14T12:25:43;3.42;;;2.45;;
64826;SDS011;51265;53.972;12.286;2024-02-14T12:28:15;3.05;;;2.40;;
64826;SDS011;51265;53.972;12.286;2024-02-14T12:30:46;2.70;;;2.25;;
64826;SDS011;51265;53.972;12.286;2024-02-14T12:33:22;2.30;;;2.10;;
64826;SDS011;51265;53.972;12.286;2024-02-14T12:35:52;2.70;;;2.28;;
64826;SDS011;51265;53.972;12.286;2024-02-14T12:38:20;2.47;;;2.10;;
64826;SDS011;51265;53.972;12.286;2024-02-14T12:40:48;2.38;;;2.00;;
64826;SDS011;51265;53.972;12.286;2024-02-14T12:43:15;2.67;;;2.15;;
64826;SDS011;51265;53.972;12.286;2024-02-14T12:45:42;2.78;;;2.05;;
64826;SDS011;51265;53.972;12.286;2024-02-14T12:48:09;2.30;;;2.10;;
64826;SDS011;51265;53.972;12.286;2024-02-14T12:50:36;1.90;;;1.70;;
64826;SDS011;51265;53.972;12.286;2024-02-14T12:53:10;3.97;;;2.10;;
64826;SDS011;51265;53.972;12.286;2024-02-14T12:55:36;2.65;;;1.98;;
64826;SDS011;51265;53.972;12.286;2024-02-14T12:58:02;2.65;;;1.88;;
64826;SDS011;51265;53.972;12.286;2024-02-14T13:00:29;1.90;;;1.55;;
64826;SDS011;51265;53.972;12.286;2024-02-14T13:02:58;0.40;;;0.30;;
64826;SDS011;51265;53.972;12.286;2024-02-14T13:05:25;1.45;;;1.20;;
64826;SDS011;51265;53.972;12.286;2024-02-14T13:07:52;3.17;;;1.45;;
64826;SDS011;51265;53.972;12.286;2024-02-14T13:10:18;1.38;;;1.23;;
64826;SDS011;51265;53.972;12.286;2024-02-14T13:12:44;2.85;;;1.60;;
64826;SDS011;51265;53.972;12.286;2024-02-14T13:15:11;2.10;;;1.63;;
64826;SDS011;51265;53.972;12.286;2024-02-14T13:17:37;1.67;;;1.50;;
64826;SDS011;51265;53.972;12.286;2024-02-14T13:20:04;2.85;;;1.70;;
64826;SDS011;51265;53.972;12.286;2024-02-14T13:22:31;1.42;;;1.30;;
64826;SDS011;51265;53.972;12.286;2024-02-14T13:24:58;1.55;;;1.40;;
64826;SDS011;51265;53.972;12.286;2024-02-14T13:27:26;2.13;;;1.63;;
64826;SDS011;51265;53.972;12.286;2024-02-14T13:29:52;2.10;;;1.60;;
64826;SDS011;51265;53.972;12.286;2024-02-14T13:32:18;3.17;;;2.35;;
64826;SDS011;51265;53.972;12.286;2024-02-14T13:34:44;4.03;;;2.67;;
64826;SDS011;51265;53.972;12.286;2024-02-14T13:37:10;2.38;;;2.17;;
64826;SDS011;51265;53.972;12.286;2024-02-14T13:39:37;2.75;;;2.45;;
64826;SDS011;51265;53.972;12.286;2024-02-14T13:42:03;3.00;;;2.40;;
64826;SDS011;51265;53.972;12.286;2024-02-14T13:44:29;4.07;;;2.50;;
64826;SDS011;51265;53.972;12.286;2024-02-14T13:46:55;5.03;;;2.65;;
64826;SDS011;51265;53.972;12.286;2024-02-14T13:49:22;3.05;;;2.58;;
64826;SDS011;51265;53.972;12.286;2024-02-14T13:52:05;3.08;;;2.45;;
64826;SDS011;51265;53.972;12.286;2024-02-14T13:54:34;3.20;;;2.47;;
64826;SDS011;51265;53.972;12.286;2024-02-14T13:57:13;2.55;;;2.33;;
64826;SDS011;51265;53.972;12.286;2024-02-14T13:59:39;2.72;;;2.15;;
64826;SDS011;51265;53.972;12.286;2024-02-14T14:02:05;2.83;;;2.35;;
64826;SDS011;51265;53.972;12.286;2024-02-14T14:04:31;3.55;;;2.42;;
64826;SDS011;51265;53.972;12.286;2024-02-14T14:06:59;2.78;;;2.50;;
64826;SDS011;51265;53.972;12.286;2024-02-14T14:09:28;2.65;;;2.42;;
64826;SDS011;51265;53.972;12.286;2024-02-14T14:11:56;4.55;;;2.60;;
64826;SDS011;51265;53.972;12.286;2024-02-14T14:14:22;2.88;;;2.53;;
64826;SDS011;51265;53.972;12.286;2024-02-14T14:16:52;2.78;;;2.55;;
64826;SDS011;51265;53.972;12.286;2024-02-14T14:19:18;2.90;;;2.13;;
64826;SDS011;51265;53.972;12.286;2024-02-14T14:21:44;3.28;;;2.50;;
64826;SDS011;51265;53.972;12.286;2024-02-14T14:24:10;2.58;;;2.20;;
64826;SDS011;51265;53.972;12.286;2024-02-14T14:26:37;2.53;;;2.10;;
64826;SDS011;51265;53.972;12.286;2024-02-14T14:29:03;2.40;;;2.13;;
64826;SDS011;51265;53.972;12.286;2024-02-14T14:31:30;2.83;;;2.28;;
64826;SDS011;51265;53.972;12.286;2024-02-14T14:33:56;2.78;;;2.45;;
64826;SDS011;51265;53.972;12.286;2024-02-14T14:36:23;3.08;;;2.53;;